sensor_id;sensor_type;location;lat;lon;timestamp;temperature;humidity
60287;DHT22;46141;52.382;5.270;2022-09-16T00:00:35;22.00;66.20
60287;DHT22;46141;52.382;5.270;2022-09-16T00:03:00;22.00;66.30
60287;DHT22;46141;52.382;5.270;2022-09-16T00:05:27;22.00;66.20
60287;DHT22;46141;52.382;5.270;2022-09-16T00:07:53;21.90;66.30
60287;DHT22;46141;52.382;5.270;2022-09-16T00:10:19;21.90;66.30
60287;DHT22;46141;52.382;5.270;2022-09-16T00:12:44;21.90;66.30
60287;DHT22;46141;52.382;5.270;2022-09-16T00:15:12;22.00;66.30
60287;DHT22;46141;52.382;5.270;2022-09-16T00:17:37;21.90;66.30
60287;DHT22;46141;52.382;5.270;2022-09-16T00:20:04;21.90;66.40
60287;DHT22;46141;52.382;5.270;2022-09-16T00:22:31;21.90;66.40
60287;DHT22;46141;52.382;5.270;2022-09-16T00:24:56;21.90;66.40
60287;DHT22;46141;52.382;5.270;2022-09-16T00:27:22;21.90;66.50
60287;DHT22;46141;52.382;5.270;2022-09-16T00:29:47;21.90;66.50
60287;DHT22;46141;52.382;5.270;2022-09-16T00:32:13;21.90;66.40
60287;DHT22;46141;52.382;5.270;2022-09-16T00:34:39;21.90;66.40
60287;DHT22;46141;52.382;5.270;2022-09-16T00:37:04;21.90;66.40
60287;DHT22;46141;52.382;5.270;2022-09-16T00:39:30;21.80;66.40
60287;DHT22;46141;52.382;5.270;2022-09-16T00:41:56;21.90;66.50
60287;DHT22;46141;52.382;5.270;2022-09-16T00:44:59;21.80;66.50
60287;DHT22;46141;52.382;5.270;2022-09-16T00:47:35;21.80;66.50
60287;DHT22;46141;52.382;5.270;2022-09-16T00:50:11;21.80;66.50
60287;DHT22;46141;52.382;5.270;2022-09-16T00:52:40;21.80;66.50
60287;DHT22;46141;52.382;5.270;2022-09-16T00:55:09;21.80;66.60
60287;DHT22;46141;52.382;5.270;2022-09-16T00:57:37;21.80;66.60
60287;DHT22;46141;52.382;5.270;2022-09-16T01:00:05;21.80;66.60
60287;DHT22;46141;52.382;5.270;2022-09-16T01:02:31;21.80;66.60
60287;DHT22;46141;52.382;5.270;2022-09-16T01:05:04;21.70;66.60
60287;DHT22;46141;52.382;5.270;2022-09-16T01:07:42;21.70;66.60
60287;DHT22;46141;52.382;5.270;2022-09-16T01:10:09;21.80;66.60
60287;DHT22;46141;52.382;5.270;2022-09-16T01:12:36;21.70;66.60
60287;DHT22;46141;52.382;5.270;2022-09-16T01:15:04;21.80;66.70
60287;DHT22;46141;52.382;5.270;2022-09-16T01:26:02;21.70;66.70
60287;DHT22;46141;52.382;5.270;2022-09-16T01:34:18;21.70;66.70
60287;DHT22;46141;52.382;5.270;2022-09-16T01:37:02;21.70;66.70
60287;DHT22;46141;52.382;5.270;2022-09-16T01:42:19;21.70;66.70
60287;DHT22;46141;52.382;5.270;2022-09-16T01:45:06;21.60;66.70
60287;DHT22;46141;52.382;5.270;2022-09-16T01:50:24;21.70;66.80
60287;DHT22;46141;52.382;5.270;2022-09-16T01:55:51;21.60;66.80
60287;DHT22;46141;52.382;5.270;2022-09-16T01:58:27;21.60;66.70
60287;DHT22;46141;52.382;5.270;2022-09-16T02:01:06;21.60;66.80
60287;DHT22;46141;52.382;5.270;2022-09-16T02:03:37;21.60;66.90
60287;DHT22;46141;52.382;5.270;2022-09-16T02:06:09;21.60;66.90
60287;DHT22;46141;52.382;5.270;2022-09-16T02:08:54;21.60;67.20
60287;DHT22;46141;52.382;5.270;2022-09-16T02:11:22;21.60;67.50
60287;DHT22;46141;52.382;5.270;2022-09-16T02:16:36;21.60;66.90
60287;DHT22;46141;52.382;5.270;2022-09-16T02:19:20;21.50;66.90
60287;DHT22;46141;52.382;5.270;2022-09-16T02:21:50;21.50;66.90
60287;DHT22;46141;52.382;5.270;2022-09-16T02:24:20;21.50;66.90
60287;DHT22;46141;52.382;5.270;2022-09-16T02:26:53;21.50;66.90
60287;DHT22;46141;52.382;5.270;2022-09-16T02:29:24;21.50;66.90
60287;DHT22;46141;52.382;5.270;2022-09-16T02:31:55;21.50;67.00
60287;DHT22;46141;52.382;5.270;2022-09-16T02:34:34;21.50;66.90
60287;DHT22;46141;52.382;5.270;2022-09-16T02:37:08;21.50;66.90
60287;DHT22;46141;52.382;5.270;2022-09-16T02:39:39;21.50;67.00
60287;DHT22;46141;52.382;5.270;2022-09-16T02:42:06;21.50;67.00
60287;DHT22;46141;52.382;5.270;2022-09-16T02:44:32;21.50;67.00
60287;DHT22;46141;52.382;5.270;2022-09-16T02:47:09;21.40;67.00
60287;DHT22;46141;52.382;5.270;2022-09-16T02:52:33;21.50;66.90
60287;DHT22;46141;52.382;5.270;2022-09-16T02:58:05;21.50;67.00
60287;DHT22;46141;52.382;5.270;2022-09-16T03:00:36;21.40;67.10
60287;DHT22;46141;52.382;5.270;2022-09-16T03:03:03;21.40;67.00
60287;DHT22;46141;52.382;5.270;2022-09-16T03:05:29;21.40;67.10
60287;DHT22;46141;52.382;5.270;2022-09-16T03:07:56;21.40;67.00
60287;DHT22;46141;52.382;5.270;2022-09-16T03:10:27;21.40;67.10
60287;DHT22;46141;52.382;5.270;2022-09-16T03:13:17;21.40;67.10
60287;DHT22;46141;52.382;5.270;2022-09-16T03:16:19;21.40;67.10
60287;DHT22;46141;52.382;5.270;2022-09-16T03:18:55;21.40;67.10
60287;DHT22;46141;52.382;5.270;2022-09-16T03:24:14;21.40;67.10
60287;DHT22;46141;52.382;5.270;2022-09-16T03:26:53;21.40;67.10
60287;DHT22;46141;52.382;5.270;2022-09-16T03:29:32;21.30;67.10
60287;DHT22;46141;52.382;5.270;2022-09-16T03:32:05;21.30;67.20
60287;DHT22;46141;52.382;5.270;2022-09-16T03:37:28;21.40;66.90
60287;DHT22;46141;52.382;5.270;2022-09-16T03:39:58;21.30;67.80
60287;DHT22;46141;52.382;5.270;2022-09-16T03:42:27;21.30;67.20
60287;DHT22;46141;52.382;5.270;2022-09-16T03:44:52;21.40;67.20
60287;DHT22;46141;52.382;5.270;2022-09-16T03:47:18;21.30;67.20
60287;DHT22;46141;52.382;5.270;2022-09-16T03:49:43;21.30;67.20
60287;DHT22;46141;52.382;5.270;2022-09-16T03:52:09;21.30;67.20
60287;DHT22;46141;52.382;5.270;2022-09-16T03:54:35;21.30;67.20
60287;DHT22;46141;52.382;5.270;2022-09-16T03:57:01;21.30;67.20
60287;DHT22;46141;52.382;5.270;2022-09-16T03:59:27;21.30;67.20
60287;DHT22;46141;52.382;5.270;2022-09-16T04:01:53;21.30;67.20
60287;DHT22;46141;52.382;5.270;2022-09-16T04:04:18;21.20;67.10
60287;DHT22;46141;52.382;5.270;2022-09-16T04:06:44;21.30;67.20
60287;DHT22;46141;52.382;5.270;2022-09-16T04:09:11;21.30;67.20
60287;DHT22;46141;52.382;5.270;2022-09-16T04:11:38;21.30;67.30
60287;DHT22;46141;52.382;5.270;2022-09-16T04:14:04;21.30;67.20
60287;DHT22;46141;52.382;5.270;2022-09-16T04:16:30;21.20;67.20
60287;DHT22;46141;52.382;5.270;2022-09-16T04:18:56;21.20;67.10
60287;DHT22;46141;52.382;5.270;2022-09-16T04:21:22;21.20;67.20
60287;DHT22;46141;52.382;5.270;2022-09-16T04:23:48;21.20;67.20
60287;DHT22;46141;52.382;5.270;2022-09-16T04:26:14;21.20;67.30
60287;DHT22;46141;52.382;5.270;2022-09-16T04:28:39;21.20;67.30
60287;DHT22;46141;52.382;5.270;2022-09-16T04:31:09;21.20;67.20
60287;DHT22;46141;52.382;5.270;2022-09-16T04:33:34;21.20;67.30
60287;DHT22;46141;52.382;5.270;2022-09-16T04:36:05;21.20;67.20
60287;DHT22;46141;52.382;5.270;2022-09-16T04:38:31;21.20;67.20
60287;DHT22;46141;52.382;5.270;2022-09-16T04:41:07;21.20;67.30
60287;DHT22;46141;52.382;5.270;2022-09-16T04:43:33;21.20;67.20
60287;DHT22;46141;52.382;5.270;2022-09-16T04:45:59;21.20;67.30
60287;DHT22;46141;52.382;5.270;2022-09-16T04:48:25;21.20;67.20
60287;DHT22;46141;52.382;5.270;2022-09-16T04:50:51;21.20;67.20
60287;DHT22;46141;52.382;5.270;2022-09-16T04:53:18;21.20;67.30
60287;DHT22;46141;52.382;5.270;2022-09-16T04:55:44;21.20;67.30
60287;DHT22;46141;52.382;5.270;2022-09-16T04:58:10;21.10;67.20
60287;DHT22;46141;52.382;5.270;2022-09-16T05:00:35;21.10;67.20
60287;DHT22;46141;52.382;5.270;2022-09-16T05:03:01;21.10;67.20
60287;DHT22;46141;52.382;5.270;2022-09-16T05:05:27;21.10;67.20
60287;DHT22;46141;52.382;5.270;2022-09-16T05:07:52;21.10;67.30
60287;DHT22;46141;52.382;5.270;2022-09-16T05:10:18;21.10;67.20
60287;DHT22;46141;52.382;5.270;2022-09-16T05:12:43;21.10;67.30
60287;DHT22;46141;52.382;5.270;2022-09-16T05:15:09;21.10;67.30
60287;DHT22;46141;52.382;5.270;2022-09-16T05:17:34;21.10;67.30
60287;DHT22;46141;52.382;5.270;2022-09-16T05:20:00;21.10;67.30
60287;DHT22;46141;52.382;5.270;2022-09-16T05:22:26;21.10;67.30
60287;DHT22;46141;52.382;5.270;2022-09-16T05:24:51;21.10;67.30
60287;DHT22;46141;52.382;5.270;2022-09-16T05:27:17;21.00;67.30
60287;DHT22;46141;52.382;5.270;2022-09-16T05:29:42;21.00;67.20
60287;DHT22;46141;52.382;5.270;2022-09-16T05:32:08;21.00;67.30
60287;DHT22;46141;52.382;5.270;2022-09-16T05:34:33;21.00;67.30
60287;DHT22;46141;52.382;5.270;2022-09-16T05:36:58;21.00;67.30
60287;DHT22;46141;52.382;5.270;2022-09-16T05:39:24;21.10;67.30
60287;DHT22;46141;52.382;5.270;2022-09-16T05:41:56;21.00;67.20
60287;DHT22;46141;52.382;5.270;2022-09-16T05:44:22;21.00;67.30
60287;DHT22;46141;52.382;5.270;2022-09-16T05:46:48;21.00;67.30
60287;DHT22;46141;52.382;5.270;2022-09-16T05:49:13;21.00;67.40
60287;DHT22;46141;52.382;5.270;2022-09-16T05:51:39;21.00;68.00
60287;DHT22;46141;52.382;5.270;2022-09-16T05:54:05;21.00;67.30
60287;DHT22;46141;52.382;5.270;2022-09-16T05:56:31;21.00;67.20
60287;DHT22;46141;52.382;5.270;2022-09-16T05:58:58;21.00;67.20
60287;DHT22;46141;52.382;5.270;2022-09-16T06:01:26;21.00;67.20
60287;DHT22;46141;52.382;5.270;2022-09-16T06:03:53;21.00;67.20
60287;DHT22;46141;52.382;5.270;2022-09-16T06:08:50;21.00;67.20
60287;DHT22;46141;52.382;5.270;2022-09-16T06:11:16;21.00;67.20
60287;DHT22;46141;52.382;5.270;2022-09-16T06:13:41;21.00;67.10
60287;DHT22;46141;52.382;5.270;2022-09-16T06:16:08;21.00;66.90
60287;DHT22;46141;52.382;5.270;2022-09-16T06:18:34;21.00;67.50
60287;DHT22;46141;52.382;5.270;2022-09-16T06:21:06;21.00;66.80
60287;DHT22;46141;52.382;5.270;2022-09-16T06:23:33;21.00;66.80
60287;DHT22;46141;52.382;5.270;2022-09-16T06:26:05;21.00;66.90
60287;DHT22;46141;52.382;5.270;2022-09-16T06:28:30;21.00;67.00
60287;DHT22;46141;52.382;5.270;2022-09-16T06:31:09;21.00;67.00
60287;DHT22;46141;52.382;5.270;2022-09-16T06:33:35;21.00;67.00
60287;DHT22;46141;52.382;5.270;2022-09-16T06:36:11;20.90;67.10
60287;DHT22;46141;52.382;5.270;2022-09-16T06:38:37;21.00;67.20
60287;DHT22;46141;52.382;5.270;2022-09-16T06:41:05;20.90;67.10
60287;DHT22;46141;52.382;5.270;2022-09-16T06:43:31;21.00;66.70
60287;DHT22;46141;52.382;5.270;2022-09-16T06:46:11;21.00;66.60
60287;DHT22;46141;52.382;5.270;2022-09-16T06:48:37;21.00;66.80
60287;DHT22;46141;52.382;5.270;2022-09-16T06:51:09;21.00;66.60
60287;DHT22;46141;52.382;5.270;2022-09-16T06:53:35;21.00;66.60
60287;DHT22;46141;52.382;5.270;2022-09-16T06:56:04;21.00;66.40
60287;DHT22;46141;52.382;5.270;2022-09-16T06:58:34;21.00;66.60
60287;DHT22;46141;52.382;5.270;2022-09-16T07:01:11;21.00;66.70
60287;DHT22;46141;52.382;5.270;2022-09-16T07:03:39;21.00;66.50
60287;DHT22;46141;52.382;5.270;2022-09-16T07:06:05;21.00;66.50
60287;DHT22;46141;52.382;5.270;2022-09-16T07:08:34;21.10;66.40
60287;DHT22;46141;52.382;5.270;2022-09-16T07:11:23;21.10;66.30
60287;DHT22;46141;52.382;5.270;2022-09-16T07:13:49;21.10;66.40
60287;DHT22;46141;52.382;5.270;2022-09-16T07:16:18;21.10;66.50
60287;DHT22;46141;52.382;5.270;2022-09-16T07:18:45;21.20;66.60
60287;DHT22;46141;52.382;5.270;2022-09-16T07:21:16;21.20;66.80
60287;DHT22;46141;52.382;5.270;2022-09-16T07:23:43;21.20;67.00
60287;DHT22;46141;52.382;5.270;2022-09-16T07:26:15;21.20;67.00
60287;DHT22;46141;52.382;5.270;2022-09-16T07:28:42;21.20;66.90
60287;DHT22;46141;52.382;5.270;2022-09-16T07:31:11;21.30;67.00
60287;DHT22;46141;52.382;5.270;2022-09-16T07:33:40;21.30;67.00
60287;DHT22;46141;52.382;5.270;2022-09-16T07:36:08;21.20;66.90
60287;DHT22;46141;52.382;5.270;2022-09-16T07:38:33;21.20;66.90
60287;DHT22;46141;52.382;5.270;2022-09-16T07:41:11;21.30;66.90
60287;DHT22;46141;52.382;5.270;2022-09-16T07:43:41;21.30;66.80
60287;DHT22;46141;52.382;5.270;2022-09-16T07:46:09;21.20;66.90
60287;DHT22;46141;52.382;5.270;2022-09-16T07:48:36;21.20;66.90
60287;DHT22;46141;52.382;5.270;2022-09-16T07:53:30;21.30;66.90
60287;DHT22;46141;52.382;5.270;2022-09-16T07:56:01;21.30;67.10
60287;DHT22;46141;52.382;5.270;2022-09-16T07:58:26;21.30;67.00
60287;DHT22;46141;52.382;5.270;2022-09-16T08:00:52;21.30;66.90
60287;DHT22;46141;52.382;5.270;2022-09-16T08:03:17;21.30;67.10
60287;DHT22;46141;52.382;5.270;2022-09-16T08:05:43;21.20;67.00
60287;DHT22;46141;52.382;5.270;2022-09-16T08:08:09;21.20;67.00
60287;DHT22;46141;52.382;5.270;2022-09-16T08:10:34;21.20;66.90
60287;DHT22;46141;52.382;5.270;2022-09-16T08:13:00;21.30;66.90
60287;DHT22;46141;52.382;5.270;2022-09-16T08:15:25;21.30;66.90
60287;DHT22;46141;52.382;5.270;2022-09-16T08:17:51;21.30;66.80
60287;DHT22;46141;52.382;5.270;2022-09-16T08:20:16;21.30;67.00
60287;DHT22;46141;52.382;5.270;2022-09-16T08:22:42;21.30;67.00
60287;DHT22;46141;52.382;5.270;2022-09-16T08:25:07;21.40;67.10
60287;DHT22;46141;52.382;5.270;2022-09-16T08:27:37;21.40;67.00
60287;DHT22;46141;52.382;5.270;2022-09-16T08:30:03;21.50;67.10
60287;DHT22;46141;52.382;5.270;2022-09-16T08:32:29;21.40;67.10
60287;DHT22;46141;52.382;5.270;2022-09-16T08:34:54;21.50;67.10
60287;DHT22;46141;52.382;5.270;2022-09-16T08:37:20;21.50;67.00
60287;DHT22;46141;52.382;5.270;2022-09-16T08:39:48;21.40;67.00
60287;DHT22;46141;52.382;5.270;2022-09-16T08:45:49;21.40;66.90
60287;DHT22;46141;52.382;5.270;2022-09-16T08:48:28;21.40;66.90
60287;DHT22;46141;52.382;5.270;2022-09-16T08:50:58;21.40;66.80
60287;DHT22;46141;52.382;5.270;2022-09-16T08:53:42;21.40;66.80
60287;DHT22;46141;52.382;5.270;2022-09-16T08:56:17;21.40;66.90
60287;DHT22;46141;52.382;5.270;2022-09-16T08:58:50;21.40;66.90
60287;DHT22;46141;52.382;5.270;2022-09-16T09:03:53;21.40;66.90
60287;DHT22;46141;52.382;5.270;2022-09-16T09:09:26;21.40;66.90
60287;DHT22;46141;52.382;5.270;2022-09-16T09:17:41;21.30;66.90
60287;DHT22;46141;52.382;5.270;2022-09-16T09:26:08;21.30;66.60
60287;DHT22;46141;52.382;5.270;2022-09-16T09:34:52;21.30;66.60
60287;DHT22;46141;52.382;5.270;2022-09-16T09:37:35;21.30;66.60
60287;DHT22;46141;52.382;5.270;2022-09-16T09:40:31;21.40;66.60
60287;DHT22;46141;52.382;5.270;2022-09-16T09:43:17;21.40;66.40
60287;DHT22;46141;52.382;5.270;2022-09-16T09:48:36;21.50;66.40
60287;DHT22;46141;52.382;5.270;2022-09-16T09:51:22;21.50;66.30
60287;DHT22;46141;52.382;5.270;2022-09-16T09:54:04;21.50;66.30
60287;DHT22;46141;52.382;5.270;2022-09-16T09:56:41;21.50;65.60
60287;DHT22;46141;52.382;5.270;2022-09-16T09:59:24;21.40;66.10
60287;DHT22;46141;52.382;5.270;2022-09-16T10:01:55;21.40;66.10
60287;DHT22;46141;52.382;5.270;2022-09-16T10:04:21;21.40;66.10
60287;DHT22;46141;52.382;5.270;2022-09-16T10:06:49;21.40;66.10
60287;DHT22;46141;52.382;5.270;2022-09-16T10:09:16;21.40;66.20
60287;DHT22;46141;52.382;5.270;2022-09-16T10:11:52;21.40;66.00
60287;DHT22;46141;52.382;5.270;2022-09-16T10:16:50;21.40;65.80
60287;DHT22;46141;52.382;5.270;2022-09-16T10:19:22;21.50;65.80
60287;DHT22;46141;52.382;5.270;2022-09-16T10:21:54;21.40;65.70
60287;DHT22;46141;52.382;5.270;2022-09-16T10:24:30;21.40;65.70
60287;DHT22;46141;52.382;5.270;2022-09-16T10:26:57;21.30;65.70
60287;DHT22;46141;52.382;5.270;2022-09-16T10:29:22;21.30;65.80
60287;DHT22;46141;52.382;5.270;2022-09-16T10:31:48;21.30;65.90
60287;DHT22;46141;52.382;5.270;2022-09-16T10:34:26;21.30;65.90
60287;DHT22;46141;52.382;5.270;2022-09-16T10:39:33;21.40;65.80
60287;DHT22;46141;52.382;5.270;2022-09-16T10:42:01;21.40;66.10
60287;DHT22;46141;52.382;5.270;2022-09-16T10:44:29;21.40;66.00
60287;DHT22;46141;52.382;5.270;2022-09-16T10:47:15;21.50;66.10
60287;DHT22;46141;52.382;5.270;2022-09-16T10:49:50;21.50;66.00
60287;DHT22;46141;52.382;5.270;2022-09-16T10:52:22;21.60;65.70
60287;DHT22;46141;52.382;5.270;2022-09-16T10:54:47;21.60;65.80
60287;DHT22;46141;52.382;5.270;2022-09-16T10:57:29;21.70;65.60
60287;DHT22;46141;52.382;5.270;2022-09-16T11:00:08;21.70;66.10
60287;DHT22;46141;52.382;5.270;2022-09-16T11:05:36;21.80;65.60
60287;DHT22;46141;52.382;5.270;2022-09-16T11:14:02;21.90;65.90
60287;DHT22;46141;52.382;5.270;2022-09-16T11:16:53;21.90;65.50
60287;DHT22;46141;52.382;5.270;2022-09-16T11:19:37;22.00;65.80
60287;DHT22;46141;52.382;5.270;2022-09-16T11:30:11;22.00;65.40
60287;DHT22;46141;52.382;5.270;2022-09-16T11:38:37;22.00;65.10
60287;DHT22;46141;52.382;5.270;2022-09-16T11:46:47;22.00;65.00
60287;DHT22;46141;52.382;5.270;2022-09-16T11:57:43;22.20;65.00
60287;DHT22;46141;52.382;5.270;2022-09-16T12:00:16;22.20;65.30
60287;DHT22;46141;52.382;5.270;2022-09-16T12:05:48;22.20;65.30
60287;DHT22;46141;52.382;5.270;2022-09-16T12:08:42;22.20;64.80
60287;DHT22;46141;52.382;5.270;2022-09-16T12:11:30;22.10;65.30
60287;DHT22;46141;52.382;5.270;2022-09-16T12:14:10;22.10;64.80
60287;DHT22;46141;52.382;5.270;2022-09-16T12:16:53;22.10;64.70
60287;DHT22;46141;52.382;5.270;2022-09-16T12:19:27;22.10;64.60
60287;DHT22;46141;52.382;5.270;2022-09-16T12:22:06;22.10;64.60
60287;DHT22;46141;52.382;5.270;2022-09-16T12:24:42;22.10;64.60
60287;DHT22;46141;52.382;5.270;2022-09-16T12:30:04;22.20;64.40
60287;DHT22;46141;52.382;5.270;2022-09-16T12:35:31;22.40;64.20
60287;DHT22;46141;52.382;5.270;2022-09-16T12:37:57;22.40;64.30
60287;DHT22;46141;52.382;5.270;2022-09-16T12:40:27;22.60;64.50
60287;DHT22;46141;52.382;5.270;2022-09-16T12:43:18;22.60;64.00
60287;DHT22;46141;52.382;5.270;2022-09-16T12:48:46;22.80;63.80
60287;DHT22;46141;52.382;5.270;2022-09-16T12:54:27;22.90;64.00
60287;DHT22;46141;52.382;5.270;2022-09-16T13:02:28;22.80;64.40
60287;DHT22;46141;52.382;5.270;2022-09-16T13:04:59;22.80;63.90
60287;DHT22;46141;52.382;5.270;2022-09-16T13:07:33;22.90;64.50
60287;DHT22;46141;52.382;5.270;2022-09-16T13:10:03;22.90;63.80
60287;DHT22;46141;52.382;5.270;2022-09-16T13:12:29;23.00;63.30
60287;DHT22;46141;52.382;5.270;2022-09-16T13:15:01;23.10;63.30
60287;DHT22;46141;52.382;5.270;2022-09-16T13:17:30;23.10;64.50
60287;DHT22;46141;52.382;5.270;2022-09-16T13:25:31;23.20;63.20
60287;DHT22;46141;52.382;5.270;2022-09-16T13:30:51;23.30;63.10
60287;DHT22;46141;52.382;5.270;2022-09-16T13:35:44;23.40;62.70
60287;DHT22;46141;52.382;5.270;2022-09-16T13:40:40;23.50;62.10
60287;DHT22;46141;52.382;5.270;2022-09-16T13:43:16;23.50;61.80
60287;DHT22;46141;52.382;5.270;2022-09-16T13:45:44;23.50;61.70
60287;DHT22;46141;52.382;5.270;2022-09-16T13:48:21;23.50;61.60
60287;DHT22;46141;52.382;5.270;2022-09-16T13:50:56;23.50;62.20
60287;DHT22;46141;52.382;5.270;2022-09-16T13:53:33;23.50;61.90
60287;DHT22;46141;52.382;5.270;2022-09-16T13:56:24;23.50;62.40
60287;DHT22;46141;52.382;5.270;2022-09-16T13:59:18;23.40;62.00
60287;DHT22;46141;52.382;5.270;2022-09-16T14:10:33;23.60;61.70
60287;DHT22;46141;52.382;5.270;2022-09-16T14:13:12;23.70;61.00
60287;DHT22;46141;52.382;5.270;2022-09-16T14:15:53;23.70;60.90
60287;DHT22;46141;52.382;5.270;2022-09-16T14:18:30;23.70;60.90
60287;DHT22;46141;52.382;5.270;2022-09-16T14:21:25;23.70;60.70
60287;DHT22;46141;52.382;5.270;2022-09-16T14:23:50;23.70;60.30
60287;DHT22;46141;52.382;5.270;2022-09-16T14:26:19;23.80;59.70
60287;DHT22;46141;52.382;5.270;2022-09-16T14:28:45;23.80;59.60
60287;DHT22;46141;52.382;5.270;2022-09-16T14:31:19;23.90;59.30
60287;DHT22;46141;52.382;5.270;2022-09-16T14:33:49;23.90;59.30
60287;DHT22;46141;52.382;5.270;2022-09-16T14:36:26;24.00;59.10
60287;DHT22;46141;52.382;5.270;2022-09-16T14:38:59;24.00;59.00
60287;DHT22;46141;52.382;5.270;2022-09-16T14:44:47;24.00;58.60
60287;DHT22;46141;52.382;5.270;2022-09-16T14:46:55;24.00;58.50
60287;DHT22;46141;52.382;5.270;2022-09-16T14:49:22;24.00;58.30
60287;DHT22;46141;52.382;5.270;2022-09-16T14:51:55;24.00;59.10
60287;DHT22;46141;52.382;5.270;2022-09-16T14:54:23;24.00;58.80
60287;DHT22;46141;52.382;5.270;2022-09-16T14:57:05;24.00;57.80
60287;DHT22;46141;52.382;5.270;2022-09-16T14:59:36;24.10;57.60
60287;DHT22;46141;52.382;5.270;2022-09-16T15:04:51;24.20;58.10
60287;DHT22;46141;52.382;5.270;2022-09-16T15:07:23;24.20;58.00
60287;DHT22;46141;52.382;5.270;2022-09-16T15:09:52;24.30;57.90
60287;DHT22;46141;52.382;5.270;2022-09-16T15:12:32;24.30;57.90
60287;DHT22;46141;52.382;5.270;2022-09-16T15:15:13;24.40;58.30
60287;DHT22;46141;52.382;5.270;2022-09-16T15:17:41;24.40;58.40
60287;DHT22;46141;52.382;5.270;2022-09-16T15:20:19;24.30;57.20
60287;DHT22;46141;52.382;5.270;2022-09-16T15:22:46;24.30;57.60
60287;DHT22;46141;52.382;5.270;2022-09-16T15:25:24;24.30;58.10
60287;DHT22;46141;52.382;5.270;2022-09-16T15:27:50;24.30;57.80
60287;DHT22;46141;52.382;5.270;2022-09-16T15:30:25;24.40;57.70
60287;DHT22;46141;52.382;5.270;2022-09-16T15:32:51;24.40;57.30
60287;DHT22;46141;52.382;5.270;2022-09-16T15:35:27;24.50;57.00
60287;DHT22;46141;52.382;5.270;2022-09-16T15:37:54;24.50;56.90
60287;DHT22;46141;52.382;5.270;2022-09-16T15:45:37;24.70;56.70
60287;DHT22;46141;52.382;5.270;2022-09-16T15:48:18;24.70;56.30
60287;DHT22;46141;52.382;5.270;2022-09-16T15:50:52;24.60;56.00
60287;DHT22;46141;52.382;5.270;2022-09-16T15:53:37;24.60;56.10
60287;DHT22;46141;52.382;5.270;2022-09-16T15:56:24;24.60;56.10
60287;DHT22;46141;52.382;5.270;2022-09-16T15:58:58;24.70;55.40
60287;DHT22;46141;52.382;5.270;2022-09-16T16:01:42;24.80;55.30
60287;DHT22;46141;52.382;5.270;2022-09-16T16:04:12;24.80;54.90
60287;DHT22;46141;52.382;5.270;2022-09-16T16:07:04;24.70;55.00
60287;DHT22;46141;52.382;5.270;2022-09-16T16:09:43;24.60;55.10
60287;DHT22;46141;52.382;5.270;2022-09-16T16:12:13;24.40;55.20
60287;DHT22;46141;52.382;5.270;2022-09-16T16:14:40;24.40;55.20
60287;DHT22;46141;52.382;5.270;2022-09-16T16:17:18;24.40;55.20
60287;DHT22;46141;52.382;5.270;2022-09-16T16:19:46;24.30;55.40
60287;DHT22;46141;52.382;5.270;2022-09-16T16:22:13;24.30;55.40
60287;DHT22;46141;52.382;5.270;2022-09-16T16:24:39;24.20;55.50
60287;DHT22;46141;52.382;5.270;2022-09-16T16:27:05;24.20;55.60
60287;DHT22;46141;52.382;5.270;2022-09-16T16:29:30;24.10;55.50
60287;DHT22;46141;52.382;5.270;2022-09-16T16:32:00;24.10;55.80
60287;DHT22;46141;52.382;5.270;2022-09-16T16:34:27;24.00;55.60
60287;DHT22;46141;52.382;5.270;2022-09-16T16:36:55;24.00;55.90
60287;DHT22;46141;52.382;5.270;2022-09-16T16:39:20;24.00;55.90
60287;DHT22;46141;52.382;5.270;2022-09-16T16:41:46;24.00;55.60
60287;DHT22;46141;52.382;5.270;2022-09-16T16:44:11;23.80;55.70
60287;DHT22;46141;52.382;5.270;2022-09-16T16:46:37;23.90;55.80
60287;DHT22;46141;52.382;5.270;2022-09-16T16:49:02;23.80;55.70
60287;DHT22;46141;52.382;5.270;2022-09-16T16:51:28;23.80;55.70
60287;DHT22;46141;52.382;5.270;2022-09-16T16:53:53;23.70;55.70
60287;DHT22;46141;52.382;5.270;2022-09-16T16:56:19;23.70;55.80
60287;DHT22;46141;52.382;5.270;2022-09-16T16:58:44;23.70;55.90
60287;DHT22;46141;52.382;5.270;2022-09-16T17:01:18;23.60;55.90
60287;DHT22;46141;52.382;5.270;2022-09-16T17:03:45;23.60;56.60
60287;DHT22;46141;52.382;5.270;2022-09-16T17:06:12;23.60;56.00
60287;DHT22;46141;52.382;5.270;2022-09-16T17:08:37;23.50;55.90
60287;DHT22;46141;52.382;5.270;2022-09-16T17:11:17;23.50;55.90
60287;DHT22;46141;52.382;5.270;2022-09-16T17:13:45;23.50;55.90
60287;DHT22;46141;52.382;5.270;2022-09-16T17:16:13;23.50;56.00
60287;DHT22;46141;52.382;5.270;2022-09-16T17:18:40;23.40;56.00
60287;DHT22;46141;52.382;5.270;2022-09-16T17:21:12;23.40;56.00
60287;DHT22;46141;52.382;5.270;2022-09-16T17:23:38;23.40;56.70
60287;DHT22;46141;52.382;5.270;2022-09-16T17:26:05;23.30;56.10
60287;DHT22;46141;52.382;5.270;2022-09-16T17:28:31;23.30;56.10
60287;DHT22;46141;52.382;5.270;2022-09-16T17:30:57;23.30;56.30
60287;DHT22;46141;52.382;5.270;2022-09-16T17:33:22;23.30;56.30
60287;DHT22;46141;52.382;5.270;2022-09-16T17:36:02;23.20;56.40
60287;DHT22;46141;52.382;5.270;2022-09-16T17:38:29;23.20;56.50
60287;DHT22;46141;52.382;5.270;2022-09-16T17:41:09;23.20;56.60
60287;DHT22;46141;52.382;5.270;2022-09-16T17:43:36;23.20;56.50
60287;DHT22;46141;52.382;5.270;2022-09-16T17:46:04;23.10;56.60
60287;DHT22;46141;52.382;5.270;2022-09-16T17:48:30;23.10;56.60
60287;DHT22;46141;52.382;5.270;2022-09-16T17:50:56;23.10;56.70
60287;DHT22;46141;52.382;5.270;2022-09-16T17:53:22;23.10;57.00
60287;DHT22;46141;52.382;5.270;2022-09-16T17:55:48;23.00;56.90
60287;DHT22;46141;52.382;5.270;2022-09-16T17:58:14;23.00;56.70
60287;DHT22;46141;52.382;5.270;2022-09-16T18:00:41;23.00;57.10
60287;DHT22;46141;52.382;5.270;2022-09-16T18:03:07;23.00;57.10
60287;DHT22;46141;52.382;5.270;2022-09-16T18:05:35;22.90;57.30
60287;DHT22;46141;52.382;5.270;2022-09-16T18:08:00;22.90;57.30
60287;DHT22;46141;52.382;5.270;2022-09-16T18:10:26;22.90;57.30
60287;DHT22;46141;52.382;5.270;2022-09-16T18:12:52;22.90;57.40
60287;DHT22;46141;52.382;5.270;2022-09-16T18:15:17;22.80;57.40
60287;DHT22;46141;52.382;5.270;2022-09-16T18:17:43;22.80;57.50
60287;DHT22;46141;52.382;5.270;2022-09-16T18:20:09;22.80;57.70
60287;DHT22;46141;52.382;5.270;2022-09-16T18:22:34;22.70;57.80
60287;DHT22;46141;52.382;5.270;2022-09-16T18:25:00;22.70;57.90
60287;DHT22;46141;52.382;5.270;2022-09-16T18:27:25;22.70;57.90
60287;DHT22;46141;52.382;5.270;2022-09-16T18:29:51;22.60;58.00
60287;DHT22;46141;52.382;5.270;2022-09-16T18:32:16;22.60;58.10
60287;DHT22;46141;52.382;5.270;2022-09-16T18:34:42;22.60;58.20
60287;DHT22;46141;52.382;5.270;2022-09-16T18:37:07;22.60;58.20